Details From KGCN - GRAND CANYON NATIONAL PARK
To KPGA - PAGE MUNI
Flight Number -
Tags generated
Created
Modified
Stats Distance 68 nm / 125 km
Max Altitude 4,100 ft / 1,250 m
Waypoints 3
Social Downloads 1
Likes 0
Share VATSIM

Download

Looking for another format? Having issues loading an existing format? Contact us
Advertisement - Login to hide

Notes

Basic altitude profile: - Ascent Rate: 2500ft/min - Ascent Speed: 250kts - Cruise Altitude: 35000ft - Cruise Speed: 420kts - Descent Rate: 1500ft/min - Descent Speed: 250kts Options: - Use NATs: yes - Use PACOTS: yes - Use low airways: yes - Use high airways: yes

Route

KGCN KLIFF KPGA

ID Type Via Altitude Latitude Longitude Leg Dist Tot Dist Heading (true) Name
O KGCN APT - 0 ft / 0 m 35.95237˚ -112.14692˚ - 0 nm - GRAND CANYON NATIONAL PARK
KLIFF FIX - 4,100 ft / 1,250 m 36.65207˚ -111.65029˚ 48 nm 48 nm 30° / 30° -
O KPGA APT - 0 ft / 0 m 36.92718˚ -111.44882˚ 19 nm 67 nm 30° / 30° PAGE MUNI

Altitude Profile

Advertisement - Login to hide

KGCN

Details ICAO KGCN (GCN)
Name GRAND CANYON NATIONAL PARK
Region United States
Timezone America/Phoenix (UTC-7.0)
Stats Elevation 6,609 ft / 2,014 m (AMSL)
Location 35.952369° -112.146919°
Runways 1
Magnetic Variation 10.702° E

METAR

KGCN 242354Z 23013G21KT 10SM CLR 26/M07 A3019 RMK AO2 SLP155 T02611072 10267 20222 56010

Decode

TAF

TAF KGCN 242333Z 2500/2524 21014G21KT P6SM SKC FM250100 22010KT P6SM SKC FM250300 VRB04KT P6SM SKC FM251800 21015G28KT P6SM SKC

Decode

Departure Runways

ID Width Length Bearing (true) Bearing (mag) Surface Threshold Offset Overrun Length
03 151 ft / 46 m 9,008 ft / 2,746 m 40.55° 29.85° Asphalt 0 ft / 0 m 0 ft / 0 m
21 151 ft / 46 m 9,008 ft / 2,746 m 220.57° 209.87° Asphalt 0 ft / 0 m 0 ft / 0 m

KPGA

Details ICAO KPGA (PGA)
Name PAGE MUNI
Region United States
Timezone America/Denver (UTC-6.0)
Stats Elevation 4,313 ft / 1,315 m (AMSL)
Location 36.927176° -111.448815°
Runways 2
Magnetic Variation 10.618° E

METAR

KPGA 242353Z AUTO VRB03KT 10SM CLR 32/M06 A2999 RMK AO2 SLP092 T03171061 10322 20272 56021 TSNO

Decode

TAF

KPGA 242333Z 2500/2524 VRB05KT P6SM SKC FM252030 20010G20KT P6SM SKC

Decode

Destination Runways

ID Width Length Bearing (true) Bearing (mag) Surface Threshold Offset Overrun Length
07 100 ft / 30 m 2,196 ft / 669 m 82.10° 71.48° Asphalt 588 ft / 179 m 0 ft / 0 m
15 150 ft / 46 m 5,959 ft / 1,816 m 170.27° 159.65° Asphalt 0 ft / 0 m 0 ft / 0 m
25 100 ft / 30 m 2,196 ft / 669 m 262.10° 251.48° Asphalt 0 ft / 0 m 0 ft / 0 m
33 150 ft / 46 m 5,959 ft / 1,816 m 350.27° 339.65° Asphalt 0 ft / 0 m 0 ft / 0 m

Popular Alternatives